Time,TemperatureF,DewpointF,PressureIn,WindDirection,WindDirectionDegrees,WindSpeedMPH,WindSpeedGustMPH,Humidity,HourlyPrecipIn,Conditions,Clouds,dailyrainin,SoftwareType,DateUTC
2013-01-24 00:02:00,46.0,10.0,30.09,SSE,154,8.0,13.0,23,0.00,,,0.00,,2013-01-24 07:02:00,
2013-01-24 00:22:00,44.0,9.0,30.08,ESE,111,2.0,7.0,23,0.00,,,0.00,,2013-01-24 07:22:00,
2013-01-24 00:32:00,39.0,10.0,30.09,SE,130,2.0,6.0,30,0.00,,,0.00,,2013-01-24 07:32:00,
2013-01-24 00:52:00,36.0,13.0,30.09,South,169,2.0,8.0,38,0.00,,,0.00,,2013-01-24 07:52:00,
2013-01-24 01:02:00,35.0,9.0,30.08,SSW,211,6.0,8.0,34,0.00,,,0.00,,2013-01-24 08:02:00,
2013-01-24 01:12:00,35.0,9.0,30.08,SSW,211,6.0,8.0,34,0.00,,,0.00,,2013-01-24 08:12:00,
2013-01-24 01:22:00,39.0,10.0,30.06,SW,226,3.0,7.0,30,0.00,,,0.00,,2013-01-24 08:22:00,
2013-01-24 01:32:00,41.0,10.0,30.06,WSW,248,0.0,11.0,28,0.00,,,0.00,,2013-01-24 08:32:00,
2013-01-24 01:52:00,37.0,10.0,30.06,West,268,3.0,6.0,32,0.00,,,0.00,,2013-01-24 08:52:00,
2013-01-24 02:02:00,32.0,10.0,30.05,SE,130,1.0,6.0,39,0.00,,,0.00,,2013-01-24 09:02:00,
2013-01-24 02:12:00,32.0,10.0,30.05,SE,130,1.0,6.0,39,0.00,,,0.00,,2013-01-24 09:12:00,
2013-01-24 02:22:00,33.0,11.0,30.06,NE,36,0.0,3.0,39,0.00,,,0.00,,2013-01-24 09:22:00,
2013-01-24 02:32:00,32.0,10.0,30.06,SW,217,3.0,5.0,40,0.00,,,0.00,,2013-01-24 09:32:00,
2013-01-24 02:42:00,32.0,10.0,30.06,SW,217,3.0,5.0,40,0.00,,,0.00,,2013-01-24 09:42:00,
2013-01-24 02:52:00,34.0,12.0,30.07,South,184,2.0,7.0,39,0.00,,,0.00,,2013-01-24 09:52:00,
2013-01-24 03:02:00,36.0,12.0,30.06,South,190,0.0,7.0,36,0.00,,,0.00,,2013-01-24 10:02:00,
2013-01-24 03:11:00,36.0,12.0,30.06,South,190,0.0,7.0,36,0.00,,,0.00,,2013-01-24 10:11:00,
2013-01-24 03:22:00,33.0,12.0,30.06,ENE,66,0.0,6.0,41,0.00,,,0.00,,2013-01-24 10:22:00,
2013-01-24 03:32:00,31.0,11.0,30.06,WSW,247,1.0,6.0,43,0.00,,,0.00,,2013-01-24 10:32:00,
2013-01-24 03:42:00,31.0,11.0,30.06,WSW,247,1.0,6.0,43,0.00,,,0.00,,2013-01-24 10:42:00,
2013-01-24 03:52:00,33.0,12.0,30.05,WNW,300,4.0,11.0,42,0.00,,,0.00,,2013-01-24 10:52:00,
2013-01-24 04:02:00,32.0,13.0,30.06,SE,128,1.0,6.0,44,0.00,,,0.00,,2013-01-24 11:02:00,
2013-01-24 04:11:00,32.0,13.0,30.06,SE,128,1.0,6.0,44,0.00,,,0.00,,2013-01-24 11:11:00,
2013-01-24 04:22:00,33.0,12.0,30.06,SSE,158,2.0,6.0,42,0.00,,,0.00,,2013-01-24 11:22:00,
2013-01-24 04:32:00,30.0,12.0,30.05,South,177,3.0,8.0,46,0.00,,,0.00,,2013-01-24 11:32:00,
2013-01-24 04:42:00,30.0,12.0,30.05,South,177,3.0,8.0,46,0.00,,,0.00,,2013-01-24 11:42:00,
2013-01-24 04:52:00,30.0,12.0,30.05,SSW,194,0.0,6.0,47,0.00,,,0.00,,2013-01-24 11:52:00,
2013-01-24 05:03:00,31.0,13.0,30.05,SSW,205,6.0,8.0,47,0.00,,,0.00,,2013-01-24 12:03:00,
2013-01-24 05:12:00,31.0,13.0,30.05,SSW,205,6.0,8.0,47,0.00,,,0.00,,2013-01-24 12:12:00,
2013-01-24 05:22:00,33.0,12.0,30.04,SE,138,7.0,10.0,41,0.00,,,0.00,,2013-01-24 12:22:00,
2013-01-24 05:32:00,35.0,13.0,30.04,SSE,159,3.0,6.0,40,0.00,,,0.00,,2013-01-24 12:32:00,
2013-01-24 05:42:00,35.0,13.0,30.04,SSE,159,3.0,6.0,40,0.00,,,0.00,,2013-01-24 12:42:00,
2013-01-24 05:52:00,38.0,15.0,30.05,ENE,69,4.0,11.0,38,0.00,,,0.00,,2013-01-24 12:52:00,
2013-01-24 06:02:00,40.0,18.0,30.04,SW,229,3.0,7.0,41,0.00,,,0.00,,2013-01-24 13:02:00,
2013-01-24 06:22:00,42.0,24.0,30.03,West,271,5.0,12.0,48,0.00,,,0.00,,2013-01-24 13:22:00,
2013-01-24 06:32:00,34.0,13.0,30.03,ESE,110,11.0,16.0,41,0.00,,,0.00,,2013-01-24 13:32:00,
2013-01-24 06:52:00,36.0,13.0,30.02,ESE,113,2.0,10.0,39,0.00,,,0.00,,2013-01-24 13:52:00,
2013-01-24 07:02:00,39.0,15.0,30.02,WSW,238,3.0,10.0,37,0.00,,,0.00,,2013-01-24 14:02:00,
2013-01-24 07:22:00,38.0,17.0,30.02,SSW,192,5.0,11.0,42,0.00,,,0.00,,2013-01-24 14:22:00,
2013-01-24 07:33:00,38.0,16.0,30.02,SSW,210,1.0,9.0,40,0.00,,,0.00,,2013-01-24 14:33:00,
2013-01-24 08:03:00,33.0,12.0,30.04,West,265,3.0,10.0,42,0.00,,,0.00,,2013-01-24 15:03:00,
2013-01-24 08:12:00,33.0,12.0,30.04,West,265,3.0,10.0,42,0.00,,,0.00,,2013-01-24 15:12:00,
2013-01-24 08:22:00,31.0,13.0,30.03,SSE,155,5.0,15.0,47,0.00,,,0.00,,2013-01-24 15:22:00,
2013-01-24 08:33:00,31.0,13.0,30.03,SSE,155,5.0,15.0,47,0.00,,,0.00,,2013-01-24 15:33:00,
2013-01-24 08:42:00,33.0,16.0,30.02,NNE,33,3.0,10.0,50,0.00,,,0.00,,2013-01-24 15:42:00,
2013-01-24 08:52:00,29.0,14.0,30.04,NNW,333,0.0,5.0,52,0.00,,,0.00,,2013-01-24 15:52:00,
2013-01-24 09:02:00,28.0,14.0,30.05,North,355,1.0,6.0,55,0.00,,,0.00,,2013-01-24 16:02:00,
2013-01-24 09:12:00,28.0,14.0,30.05,North,355,1.0,6.0,55,0.00,,,0.00,,2013-01-24 16:12:00,
2013-01-24 09:22:00,29.0,15.0,30.04,NNW,344,0.0,3.0,55,0.00,,,0.00,,2013-01-24 16:22:00,
2013-01-24 09:33:00,30.0,16.0,30.03,NW,323,0.0,3.0,56,0.00,,,0.00,,2013-01-24 16:33:00,
2013-01-24 09:42:00,30.0,16.0,30.03,NW,323,0.0,3.0,56,0.00,,,0.00,,2013-01-24 16:42:00,
2013-01-24 10:01:00,33.0,16.0,30.04,South,186,0.0,3.0,50,0.00,,,0.00,,2013-01-24 17:01:00,
2013-01-24 10:11:00,33.0,16.0,30.04,South,186,0.0,3.0,50,0.00,,,0.00,,2013-01-24 17:11:00,
2013-01-24 10:21:00,33.0,16.0,30.04,South,186,0.0,3.0,50,0.00,,,0.00,,2013-01-24 17:21:00,
2013-01-24 10:32:00,39.0,17.0,30.04,North,355,0.0,5.0,40,0.00,,,0.00,,2013-01-24 17:32:00,
2013-01-24 10:42:00,39.0,17.0,30.04,North,355,0.0,5.0,40,0.00,,,0.00,,2013-01-24 17:42:00,
2013-01-24 10:52:00,41.0,16.0,30.05,NE,49,0.0,1.0,36,0.00,,,0.00,,2013-01-24 17:52:00,
2013-01-24 11:02:00,44.0,16.0,30.05,SE,126,0.0,3.0,32,0.00,,,0.00,,2013-01-24 18:02:00,
2013-01-24 11:11:00,44.0,17.0,30.05,West,269,1.0,5.0,34,0.00,,,0.00,,2013-01-24 18:11:00,
2013-01-24 11:22:00,44.0,17.0,30.05,West,269,1.0,5.0,34,0.00,,,0.00,,2013-01-24 18:22:00,
2013-01-24 11:32:00,45.0,18.0,30.04,NW,307,2.0,5.0,33,0.00,,,0.00,,2013-01-24 18:32:00,
2013-01-24 11:42:00,45.0,18.0,30.04,NW,307,2.0,5.0,33,0.00,,,0.00,,2013-01-24 18:42:00,
2013-01-24 11:52:00,43.0,18.0,30.05,NW,307,0.0,3.0,36,0.00,,,0.00,,2013-01-24 18:52:00,
2013-01-24 12:01:00,45.0,19.0,30.03,NW,307,0.0,3.0,35,0.00,,,0.00,,2013-01-24 19:01:00,
2013-01-24 12:12:00,45.0,19.0,30.03,NW,307,0.0,3.0,35,0.00,,,0.00,,2013-01-24 19:12:00,
2013-01-24 12:21:00,46.0,18.0,30.02,WNW,288,1.0,4.0,32,0.00,,,0.00,,2013-01-24 19:21:00,
2013-01-24 12:32:00,44.0,17.0,30.01,SE,146,1.0,3.0,34,0.00,,,0.00,,2013-01-24 19:32:00,
2013-01-24 12:41:00,44.0,17.0,30.01,SE,146,1.0,3.0,34,0.00,,,0.00,,2013-01-24 19:41:00,
2013-01-24 12:51:00,46.0,21.0,29.99,ESE,109,2.0,7.0,37,0.00,,,0.00,,2013-01-24 19:51:00,
2013-01-24 13:01:00,46.0,21.0,29.99,ENE,71,2.0,9.0,37,0.00,,,0.00,,2013-01-24 20:01:00,
2013-01-24 13:11:00,46.0,21.0,29.99,ENE,71,2.0,9.0,37,0.00,,,0.00,,2013-01-24 20:11:00,
2013-01-24 13:21:00,46.0,21.0,29.99,ENE,71,2.0,9.0,37,0.00,,,0.00,,2013-01-24 20:21:00,
2013-01-24 13:32:00,45.0,24.0,29.99,WSW,254,1.0,7.0,43,0.00,,,0.00,,2013-01-24 20:32:00,
2013-01-24 13:42:00,45.0,24.0,29.99,WSW,254,1.0,7.0,43,0.00,,,0.00,,2013-01-24 20:42:00,
2013-01-24 13:52:00,45.0,24.0,30.00,SW,229,3.0,7.0,44,0.00,,,0.00,,2013-01-24 20:52:00,
2013-01-24 14:02:00,45.0,23.0,29.98,SSE,161,2.0,5.0,42,0.00,,,0.00,,2013-01-24 21:02:00,
2013-01-24 14:11:00,45.0,23.0,29.98,SSE,161,2.0,5.0,42,0.00,,,0.00,,2013-01-24 21:11:00,
2013-01-24 14:22:00,46.0,25.0,29.98,West,269,1.0,8.0,43,0.00,,,0.00,,2013-01-24 21:22:00,
2013-01-24 14:32:00,46.0,26.0,29.99,NNW,333,3.0,8.0,45,0.00,,,0.00,,2013-01-24 21:32:00,
2013-01-24 14:42:00,46.0,26.0,29.99,NNW,333,3.0,8.0,45,0.00,,,0.00,,2013-01-24 21:42:00,
2013-01-24 14:52:00,45.0,25.0,29.99,SW,227,3.0,9.0,46,0.00,,,0.00,,2013-01-24 21:52:00,
2013-01-24 15:02:00,46.0,26.0,30.00,NNW,333,3.0,6.0,45,0.00,,,0.00,,2013-01-24 22:02:00,
2013-01-24 15:11:00,46.0,26.0,30.00,NNW,333,3.0,6.0,45,0.00,,,0.00,,2013-01-24 22:11:00,
2013-01-24 15:22:00,46.0,27.0,30.01,North,5,4.0,7.0,48,0.00,,,0.00,,2013-01-24 22:22:00,
2013-01-24 15:32:00,45.0,27.0,30.01,ESE,107,0.0,4.0,49,0.00,,,0.00,,2013-01-24 22:32:00,
2013-01-24 15:42:00,45.0,27.0,30.01,ESE,107,0.0,4.0,49,0.00,,,0.00,,2013-01-24 22:42:00,
2013-01-24 15:52:00,45.0,27.0,30.01,ESE,107,0.0,4.0,49,0.00,,,0.00,,2013-01-24 22:52:00,
2013-01-24 16:02:00,45.0,27.0,30.02,NNW,331,3.0,5.0,50,0.00,,,0.00,,2013-01-24 23:02:00,
2013-01-24 16:11:00,45.0,27.0,30.02,NNW,331,3.0,5.0,50,0.00,,,0.00,,2013-01-24 23:11:00,
2013-01-24 16:21:00,44.0,28.0,30.02,WSW,241,0.0,4.0,52,0.00,,,0.00,,2013-01-24 23:21:00,
2013-01-24 16:32:00,43.0,27.0,30.01,SE,138,1.0,4.0,53,0.00,,,0.00,,2013-01-24 23:32:00,
2013-01-24 16:42:00,43.0,27.0,30.01,SE,138,1.0,4.0,53,0.00,,,0.00,,2013-01-24 23:42:00,
2013-01-24 16:52:00,45.0,25.0,30.00,WSW,249,4.0,10.0,45,0.00,,,0.00,,2013-01-24 23:52:00,
2013-01-24 17:01:00,47.0,25.0,29.99,WSW,254,1.0,12.0,42,0.00,,,0.00,,2013-01-25 00:01:00,
2013-01-24 17:12:00,47.0,25.0,29.99,WSW,254,1.0,12.0,42,0.00,,,0.00,,2013-01-25 00:12:00,
2013-01-24 17:21:00,43.0,26.0,29.99,NW,324,5.0,10.0,51,0.00,,,0.00,,2013-01-25 00:21:00,
2013-01-24 17:32:00,40.0,26.0,30.05,NNW,344,2.0,7.0,58,0.00,,,0.00,,2013-01-25 00:32:00,
2013-01-24 17:41:00,40.0,26.0,30.05,NNW,344,2.0,7.0,58,0.00,,,0.00,,2013-01-25 00:41:00,
2013-01-24 17:51:00,39.0,26.0,30.07,ESE,109,1.0,4.0,60,0.00,,,0.00,,2013-01-25 00:51:00,
2013-01-24 18:01:00,37.0,26.0,30.08,West,262,4.0,6.0,65,0.00,,,0.00,,2013-01-25 01:01:00,
2013-01-24 18:11:00,37.0,26.0,30.08,West,262,4.0,6.0,65,0.00,,,0.00,,2013-01-25 01:11:00,
2013-01-24 18:21:00,37.0,27.0,30.09,South,190,5.0,7.0,67,0.00,,,0.00,,2013-01-25 01:21:00,
2013-01-24 18:31:00,37.0,27.0,30.11,South,175,0.0,8.0,67,0.00,,,0.00,,2013-01-25 01:31:00,
2013-01-24 18:41:00,37.0,27.0,30.11,South,175,0.0,8.0,67,0.00,,,0.00,,2013-01-25 01:41:00,
2013-01-24 18:51:00,36.0,26.0,30.09,SW,225,3.0,7.0,68,0.00,,,0.00,,2013-01-25 01:51:00,
2013-01-24 19:01:00,36.0,26.0,30.10,South,189,4.0,7.0,66,0.00,,,0.00,,2013-01-25 02:01:00,
2013-01-24 19:11:00,36.0,26.0,30.10,South,189,4.0,7.0,66,0.00,,,0.00,,2013-01-25 02:11:00,
2013-01-24 19:22:00,36.0,25.0,30.10,SSE,148,3.0,7.0,65,0.00,,,0.00,,2013-01-25 02:22:00,
2013-01-24 19:32:00,36.0,25.0,30.11,SSE,168,0.0,4.0,65,0.00,,,0.00,,2013-01-25 02:32:00,
2013-01-24 19:42:00,36.0,25.0,30.11,SSE,168,0.0,4.0,65,0.00,,,0.00,,2013-01-25 02:42:00,
2013-01-24 19:52:00,36.0,25.0,30.11,SSE,168,0.0,2.0,63,0.00,,,0.00,,2013-01-25 02:52:00,
2013-01-24 20:02:00,33.0,24.0,30.11,SSE,168,0.0,3.0,69,0.00,,,0.00,,2013-01-25 03:02:00,
2013-01-24 20:12:00,33.0,22.0,30.11,SSE,168,1.0,3.0,64,0.00,,,0.00,,2013-01-25 03:12:00,
2013-01-24 20:21:00,33.0,22.0,30.11,SSE,168,1.0,3.0,64,0.00,,,0.00,,2013-01-25 03:21:00,
2013-01-24 20:32:00,31.0,22.0,30.11,SSE,167,1.0,4.0,69,0.00,,,0.00,,2013-01-25 03:32:00,
2013-01-24 20:41:00,31.0,22.0,30.11,SSE,167,1.0,4.0,69,0.00,,,0.00,,2013-01-25 03:41:00,
2013-01-24 20:52:00,31.0,22.0,30.11,SSE,167,1.0,3.0,68,0.00,,,0.00,,2013-01-25 03:52:00,
2013-01-24 21:02:00,32.0,23.0,30.12,SSE,167,0.0,3.0,68,0.00,,,0.00,,2013-01-25 04:02:00,
2013-01-24 21:11:00,32.0,23.0,30.12,SSE,167,0.0,3.0,68,0.00,,,0.00,,2013-01-25 04:11:00,
2013-01-24 21:22:00,32.0,23.0,30.13,SSE,167,0.0,2.0,68,0.00,,,0.00,,2013-01-25 04:22:00,
2013-01-24 21:31:00,32.0,23.0,30.13,SSE,167,0.0,2.0,69,0.00,,,0.00,,2013-01-25 04:31:00,
2013-01-24 21:41:00,32.0,23.0,30.13,SSE,167,0.0,2.0,69,0.00,,,0.00,,2013-01-25 04:41:00,
2013-01-24 21:51:00,31.0,22.0,30.14,South,187,0.0,3.0,68,0.00,,,0.00,,2013-01-25 04:51:00,
2013-01-24 22:03:00,30.0,22.0,30.14,South,187,0.0,4.0,71,0.00,,,0.00,,2013-01-25 05:03:00,
2013-01-24 22:12:00,30.0,22.0,30.14,South,187,0.0,4.0,73,0.00,,,0.00,,2013-01-25 05:12:00,
2013-01-24 22:22:00,30.0,22.0,30.14,South,187,0.0,4.0,73,0.00,,,0.00,,2013-01-25 05:22:00,
2013-01-24 22:32:00,29.0,21.0,30.15,South,187,1.0,3.0,73,0.00,,,0.00,,2013-01-25 05:32:00,
2013-01-24 22:42:00,29.0,21.0,30.15,South,187,1.0,3.0,73,0.00,,,0.00,,2013-01-25 05:42:00,
2013-01-24 22:51:00,31.0,23.0,30.14,South,187,1.0,4.0,73,0.00,,,0.00,,2013-01-25 05:51:00,
2013-01-24 23:02:00,31.0,22.0,30.14,South,187,0.0,3.0,68,0.00,,,0.00,,2013-01-25 06:02:00,
2013-01-24 23:11:00,31.0,22.0,30.14,South,187,0.0,3.0,68,0.00,,,0.00,,2013-01-25 06:11:00,
2013-01-24 23:21:00,32.0,23.0,30.14,South,187,0.0,2.0,68,0.00,,,0.00,,2013-01-25 06:21:00,
2013-01-24 23:31:00,31.0,22.0,30.14,South,187,0.0,2.0,68,0.00,,,0.00,,2013-01-25 06:31:00,
2013-01-24 23:41:00,31.0,22.0,30.14,South,187,0.0,2.0,68,0.00,,,0.00,,2013-01-25 06:41:00,
2013-01-24 23:51:00,33.0,21.0,30.14,South,187,1.0,4.0,61,0.00,,,0.00,,2013-01-25 06:51:00,